This is the latest recevied weather packets stored in our database for station/object OK3MS-5. If no packets are shown the sender has not sent any weather packets the latest 1 day(s).
| Time | Temp. | Humidity | Pressure | Rain* | Wind** | Luminosity | Snow |
|---|---|---|---|---|---|---|---|
| 1777995304 | 20° C | 57% | 1002.4 hPa | 0 mm | 0 m/s | 114 W/m² | - |
| 1777995002 | 20.56° C | 55% | 1002.4 hPa | 0 mm | 0 m/s | 121 W/m² | - |
| 1777994703 | 21.11° C | 54% | 1002.3 hPa | 0 mm | 2.24 m/s, 246° | 159 W/m² | - |
| 1777994104 | 21.67° C | 51% | 1002.4 hPa | 0 mm | 0.45 m/s, 298° | 319 W/m² | - |
| 1777993806 | 21.11° C | 53% | 1002.4 hPa | 0 mm | 0.89 m/s, 294° | 349 W/m² | - |
| 1777993503 | 21.67° C | 51% | 1002.3 hPa | 0 mm | 0.45 m/s, 312° | 223 W/m² | - |
| 1777993202 | 22.22° C | 48% | 1002.3 hPa | 0 mm | 0.45 m/s, 185° | 230 W/m² | - |
| 1777992905 | 23.33° C | 41% | 1002.2 hPa | 0 mm | 0 m/s | 238 W/m² | - |
| 1777992604 | 22.78° C | 41% | 1002.3 hPa | 0 mm | 0.89 m/s, 166° | 272 W/m² | - |
| 1777992303 | 22.78° C | 43% | 1002.3 hPa | 0 mm | 0.45 m/s, 166° | 212 W/m² | - |
| 1777992003 | 22.22° C | 42% | 1002.3 hPa | 0 mm | 0.89 m/s, 150° | 115 W/m² | - |
| 1777991705 | 22.78° C | 42% | 1002.2 hPa | 0 mm | 2.24 m/s, 121° | 92 W/m² | - |
| 1777991404 | 22.78° C | 43% | 1002.3 hPa | 0 mm | 0 m/s | 81 W/m² | - |
| 1777991103 | 22.78° C | 43% | 1002.4 hPa | 0 mm | 0.45 m/s, 103° | 97 W/m² | - |
| 1777990806 | 22.78° C | 44% | 1002.4 hPa | 0 mm | 0 m/s | 95 W/m² | - |
| 1777990502 | 22.78° C | 43% | 1002.4 hPa | 0 mm | 0.45 m/s, 126° | 80 W/m² | - |
| 1777990204 | 22.78° C | 42% | 1002.5 hPa | 0 mm | 1.34 m/s, 67° | 71 W/m² | - |
| 1777989904 | 22.78° C | 42% | 1002.5 hPa | 0 mm | 0.45 m/s, 108° | 79 W/m² | - |
| 1777989604 | 22.78° C | 42% | 1002.6 hPa | 0 mm | 0.89 m/s, 101° | 101 W/m² | - |
| 1777989305 | 23.33° C | 41% | 1002.7 hPa | 0 mm | 0.89 m/s, 85° | 126 W/m² | - |
| 1777989004 | 23.33° C | 41% | 1002.6 hPa | 0 mm | 0 m/s | 133 W/m² | - |
| 1777988703 | 23.33° C | 40% | 1002.5 hPa | 0 mm | 3.58 m/s, 144° | 147 W/m² | - |
| 1777988403 | 23.33° C | 41% | 1002.5 hPa | 0 mm | 0.45 m/s, 105° | 147 W/m² | - |
| 1777988103 | 23.33° C | 41% | 1002.6 hPa | 0 mm | 0 m/s | 123 W/m² | - |
| 1777987803 | 23.33° C | 39% | 1002.5 hPa | 0 mm | 1.79 m/s, 108° | 120 W/m² | - |
* Rain latest hour (hover to see other rain measurements)
** Current wind speed in m/s (hover to see current wind gust speed)